createdAt,value
2023-01-01T00:00:52.611Z,8.50
2023-01-01T00:04:25.275Z,8.60
2023-01-01T00:10:52.409Z,8.80
2023-01-01T00:17:24.968Z,8.50
2023-01-01T00:20:26.651Z,8.70
2023-01-01T00:23:35.295Z,8.50
2023-01-01T00:45:50.566Z,8.30
2023-01-01T00:48:58.663Z,8.50
2023-01-01T00:52:41.956Z,8.60
2023-01-01T00:55:42.106Z,8.70
2023-01-01T00:58:42.842Z,8.70
2023-01-01T01:01:45.720Z,8.70
2023-01-01T01:04:43.158Z,8.90
2023-01-01T01:07:50.723Z,9.10
2023-01-01T01:17:40.793Z,8.70
2023-01-01T01:28:52.254Z,8.80
2023-01-01T01:31:47.102Z,8.80
2023-01-01T01:34:47.869Z,8.90
2023-01-01T01:37:47.380Z,8.90
2023-01-01T01:41:29.022Z,9.00
2023-01-01T01:45:11.078Z,8.90
2023-01-01T01:48:43.477Z,8.80
2023-01-01T02:03:27.571Z,8.90
2023-01-01T02:06:21.734Z,8.90
2023-01-01T02:09:28.052Z,8.90
2023-01-01T02:12:24.399Z,8.90
2023-01-01T02:15:53.200Z,8.90
2023-01-01T02:19:16.349Z,8.60
2023-01-01T02:32:48.787Z,8.70
2023-01-01T02:40:07.130Z,8.80
2023-01-01T02:43:37.005Z,8.60
2023-01-01T02:46:41.469Z,8.30
2023-01-01T02:49:36.343Z,8.80
2023-01-01T02:52:39.435Z,8.40
2023-01-01T02:56:20.352Z,8.10
2023-01-01T02:59:53.319Z,8.10
2023-01-01T03:02:52.656Z,8.00
2023-01-01T03:06:23.280Z,8.10
2023-01-01T03:09:50.834Z,8.10
2023-01-01T03:13:11.543Z,8.00
2023-01-01T03:20:27.654Z,8.00
2023-01-01T03:26:35.460Z,8.40
2023-01-01T03:29:35.492Z,8.10
2023-01-01T03:32:55.668Z,8.00
2023-01-01T03:35:49.577Z,7.90
2023-01-01T03:38:54.668Z,7.80
2023-01-01T03:41:55.175Z,7.80
2023-01-01T03:45:16.290Z,7.60
2023-01-01T03:48:14.175Z,7.60
2023-01-01T03:52:48.369Z,7.60
2023-01-01T03:59:24.421Z,7.80
2023-01-01T04:02:35.438Z,8.00
2023-01-01T04:05:47.518Z,7.90
2023-01-01T04:08:35.999Z,7.80
2023-01-01T04:11:45.385Z,7.70
2023-01-01T04:18:00.402Z,7.40
2023-01-01T04:20:59.833Z,7.40
2023-01-01T04:23:52.023Z,7.70
2023-01-01T04:26:44.740Z,7.60
2023-01-01T04:29:34.146Z,7.40
2023-01-01T04:32:21.011Z,7.50
2023-01-01T04:35:19.107Z,7.30
2023-01-01T04:38:08.897Z,7.30
2023-01-01T04:41:04.757Z,7.30
2023-01-01T04:44:07.717Z,7.30
2023-01-01T04:47:15.465Z,7.30
2023-01-01T04:50:19.946Z,7.40
2023-01-01T04:53:07.079Z,7.30
2023-01-01T04:55:54.004Z,7.40
2023-01-01T04:58:56.371Z,7.40
2023-01-01T05:01:53.144Z,7.20
2023-01-01T05:04:47.619Z,7.30
2023-01-01T05:07:47.098Z,7.20
2023-01-01T05:10:39.711Z,7.60
2023-01-01T05:13:44.054Z,7.20
2023-01-01T05:20:25.061Z,7.00
2023-01-01T05:24:46.510Z,6.80
2023-01-01T05:27:48.809Z,6.90
2023-01-01T05:30:43.470Z,6.80
2023-01-01T05:33:47.810Z,7.60
2023-01-01T05:36:45.827Z,6.90
2023-01-01T05:39:44.755Z,7.50
2023-01-01T05:42:35.028Z,7.00
2023-01-01T05:49:55.874Z,6.70
2023-01-01T05:53:14.312Z,6.90
2023-01-01T05:56:19.935Z,7.10
2023-01-01T06:00:14.765Z,6.90
2023-01-01T06:14:30.263Z,6.90
2023-01-01T06:17:29.194Z,6.60
2023-01-01T06:20:21.248Z,6.30
2023-01-01T06:23:08.190Z,6.60
2023-01-01T06:26:00.683Z,6.50
2023-01-01T06:28:48.369Z,6.60
2023-01-01T06:31:40.773Z,6.80
2023-01-01T06:34:30.941Z,6.80
2023-01-01T06:37:22.159Z,6.50
2023-01-01T06:40:17.659Z,6.80
2023-01-01T06:46:51.010Z,6.40
2023-01-01T06:49:37.726Z,6.40
2023-01-01T06:52:24.514Z,6.30
2023-01-01T06:55:11.214Z,6.40
2023-01-01T06:57:59.126Z,6.40
2023-01-01T07:00:45.875Z,6.40
2023-01-01T07:03:35.105Z,6.50
2023-01-01T07:06:22.903Z,6.50
2023-01-01T07:09:11.097Z,6.60
2023-01-01T07:11:57.789Z,6.50
2023-01-01T07:14:44.523Z,6.60
2023-01-01T07:17:31.325Z,6.60
2023-01-01T07:20:18.053Z,6.70
2023-01-01T07:23:04.767Z,6.60
2023-01-01T07:25:52.905Z,6.60
2023-01-01T07:28:39.616Z,6.70
2023-01-01T07:31:26.629Z,6.70
2023-01-01T07:34:16.146Z,6.70
2023-01-01T07:37:02.880Z,6.70
2023-01-01T07:39:49.589Z,6.80
2023-01-01T07:42:36.293Z,6.70
2023-01-01T07:45:23.045Z,6.80
2023-01-01T07:48:14.925Z,7.00
2023-01-01T07:51:01.793Z,7.10
2023-01-01T07:53:48.591Z,7.10
2023-01-01T07:56:36.168Z,7.10
2023-01-01T07:59:22.938Z,7.10
2023-01-01T08:02:12.784Z,7.20
2023-01-01T08:04:59.572Z,7.20
2023-01-01T08:07:48.237Z,7.10
2023-01-01T08:10:34.979Z,7.20
2023-01-01T08:13:21.676Z,7.20
2023-01-01T08:16:08.905Z,7.30
2023-01-01T08:18:55.725Z,7.30
2023-01-01T08:21:42.989Z,7.30
2023-01-01T08:24:29.764Z,7.30
2023-01-01T08:27:17.332Z,7.40
2023-01-01T08:30:04.541Z,7.40
2023-01-01T08:32:51.280Z,7.50
2023-01-01T08:35:41.639Z,7.50
2023-01-01T08:38:28.411Z,7.60
2023-01-01T08:41:15.176Z,7.60
2023-01-01T08:44:01.899Z,7.60
2023-01-01T08:46:48.645Z,7.70
2023-01-01T08:49:35.368Z,7.80
2023-01-01T08:52:22.392Z,8.00
2023-01-01T08:55:09.705Z,8.20
2023-01-01T08:57:56.375Z,8.30
2023-01-01T09:00:43.149Z,8.50
2023-01-01T09:03:30.034Z,8.70
2023-01-01T09:06:16.863Z,8.90
2023-01-01T09:09:03.589Z,9.20
2023-01-01T09:11:52.439Z,9.40
2023-01-01T09:14:39.150Z,9.60
2023-01-01T09:17:25.929Z,9.80
2023-01-01T09:20:12.634Z,10.00
2023-01-01T09:23:05.615Z,10.20
2023-01-01T09:25:52.757Z,10.30
2023-01-01T09:28:41.056Z,10.50
2023-01-01T09:31:27.851Z,10.70
2023-01-01T09:34:15.221Z,10.80
2023-01-01T09:37:01.950Z,10.90
2023-01-01T09:39:48.685Z,11.00
2023-01-01T09:42:53.764Z,11.10
2023-01-01T09:46:00.596Z,11.20
2023-01-01T09:48:58.865Z,11.50
2023-01-01T09:51:57.904Z,11.70
2023-01-01T09:54:51.481Z,11.90
2023-01-01T09:57:39.011Z,12.20
2023-01-01T10:00:26.824Z,12.60
2023-01-01T10:03:29.350Z,12.60
2023-01-01T10:06:21.249Z,12.70
2023-01-01T10:09:22.718Z,13.10
2023-01-01T10:12:21.167Z,13.30
2023-01-01T10:15:20.148Z,13.60
2023-01-01T10:18:35.943Z,13.90
2023-01-01T10:21:46.565Z,13.80
2023-01-01T10:24:43.140Z,14.20
2023-01-01T10:27:35.886Z,14.60
2023-01-01T10:30:24.160Z,15.60
2023-01-01T10:33:15.042Z,18.60
2023-01-01T10:36:02.042Z,23.00
2023-01-01T10:38:51.060Z,26.40
2023-01-01T10:41:37.834Z,29.00
2023-01-01T10:44:31.995Z,30.20
2023-01-01T10:47:28.570Z,30.80
2023-01-01T10:50:17.029Z,30.60
2023-01-01T10:53:03.860Z,30.40
2023-01-01T10:55:57.997Z,31.00
2023-01-01T10:58:54.719Z,32.50
2023-01-01T11:01:43.168Z,32.90
2023-01-01T11:04:29.957Z,32.80
2023-01-01T11:07:32.014Z,33.30
2023-01-01T11:10:24.017Z,34.40
2023-01-01T11:13:22.032Z,35.10
2023-01-01T11:16:11.549Z,35.20
2023-01-01T11:19:06.719Z,35.70
2023-01-01T11:21:53.811Z,35.80
2023-01-01T11:24:40.624Z,35.50
2023-01-01T11:27:30.935Z,35.20
2023-01-01T11:30:23.192Z,35.40
2023-01-01T11:33:16.508Z,35.60
2023-01-01T11:36:04.564Z,35.50
2023-01-01T11:39:22.405Z,35.40
2023-01-01T11:42:09.234Z,36.00
2023-01-01T11:44:58.383Z,36.50
2023-01-01T11:47:50.644Z,36.20
2023-01-01T11:50:40.898Z,36.90
2023-01-01T11:53:31.772Z,38.10
2023-01-01T11:56:21.073Z,39.00
2023-01-01T11:59:23.003Z,38.20
2023-01-01T12:02:15.546Z,37.30
2023-01-01T12:05:31.045Z,37.50
2023-01-01T12:08:40.122Z,37.70
2023-01-01T12:11:54.052Z,38.60
2023-01-01T12:14:49.836Z,38.50
2023-01-01T12:17:59.016Z,38.30
2023-01-01T12:20:57.344Z,38.00
2023-01-01T12:23:45.999Z,37.70
2023-01-01T12:26:53.217Z,37.50
2023-01-01T12:30:04.014Z,36.80
2023-01-01T12:33:20.107Z,37.30
2023-01-01T12:36:40.992Z,37.80
2023-01-01T12:39:30.728Z,38.00
2023-01-01T12:42:22.011Z,37.90
2023-01-01T12:45:37.674Z,37.20
2023-01-01T12:48:48.018Z,36.80
2023-01-01T12:52:07.086Z,35.20
2023-01-01T12:55:24.036Z,32.70
2023-01-01T12:58:27.056Z,31.60
2023-01-01T13:01:28.301Z,30.30
2023-01-01T13:04:20.486Z,28.90
2023-01-01T13:07:14.035Z,26.40
2023-01-01T13:10:27.632Z,24.40
2023-01-01T13:13:17.001Z,22.70
2023-01-01T13:16:03.968Z,21.10
2023-01-01T13:18:52.756Z,20.20
2023-01-01T13:21:41.938Z,19.00
2023-01-01T13:24:30.080Z,18.50
2023-01-01T13:27:56.076Z,18.20
2023-01-01T13:30:44.038Z,18.30
2023-01-01T13:33:33.268Z,18.40
2023-01-01T13:36:23.046Z,18.40
2023-01-01T13:39:09.825Z,18.50
2023-01-01T13:41:58.039Z,18.50
2023-01-01T13:44:44.773Z,18.30
2023-01-01T13:47:52.965Z,18.20
2023-01-01T13:50:58.366Z,18.00
2023-01-01T13:54:26.540Z,17.60
2023-01-01T13:57:44.741Z,17.00
2023-01-01T14:00:38.077Z,16.40
2023-01-01T14:03:26.517Z,16.00
2023-01-01T14:06:44.975Z,15.80
2023-01-01T14:09:31.731Z,15.60
2023-01-01T14:12:21.975Z,15.40
2023-01-01T14:15:27.019Z,15.30
2023-01-01T14:18:19.000Z,15.30
2023-01-01T14:21:17.270Z,14.90
2023-01-01T14:24:08.013Z,14.80
2023-01-01T14:26:55.640Z,14.60
2023-01-01T14:29:46.528Z,14.50
2023-01-01T14:32:33.474Z,14.40
2023-01-01T14:35:20.373Z,14.30
2023-01-01T14:38:24.984Z,14.20
2023-01-01T14:41:23.051Z,14.00
2023-01-01T14:44:16.455Z,13.80
2023-01-01T14:47:06.030Z,13.70
2023-01-01T14:49:53.648Z,13.60
2023-01-01T14:52:42.136Z,13.50
2023-01-01T14:55:34.359Z,13.50
2023-01-01T14:58:25.993Z,13.60
2023-01-01T15:01:18.128Z,13.60
2023-01-01T15:04:21.043Z,13.60
2023-01-01T15:07:20.835Z,13.50
2023-01-01T15:10:14.979Z,13.40
2023-01-01T15:13:06.422Z,13.40
2023-01-01T15:15:57.007Z,13.40
2023-01-01T15:18:50.487Z,13.30
2023-01-01T15:21:39.966Z,13.20
2023-01-01T15:24:29.134Z,13.10
2023-01-01T15:27:31.999Z,13.00
2023-01-01T15:30:36.275Z,13.00
2023-01-01T15:33:23.642Z,12.80
2023-01-01T15:36:10.371Z,12.70
2023-01-01T15:38:57.817Z,12.50
2023-01-01T15:41:47.460Z,12.40
2023-01-01T15:44:36.523Z,12.40
2023-01-01T15:47:26.557Z,12.20
2023-01-01T15:50:30.692Z,12.10
2023-01-01T15:53:24.111Z,11.90
2023-01-01T15:56:13.511Z,11.90
2023-01-01T15:59:09.222Z,11.70
2023-01-01T16:02:15.427Z,11.70
2023-01-01T16:05:02.582Z,11.70
2023-01-01T16:08:02.359Z,11.60
2023-01-01T16:10:49.968Z,11.60
2023-01-01T16:13:36.926Z,11.60
2023-01-01T16:16:29.024Z,11.60
2023-01-01T16:19:18.474Z,11.50
2023-01-01T16:22:05.385Z,11.50
2023-01-01T16:24:52.206Z,11.50
2023-01-01T16:27:38.912Z,11.40
2023-01-01T16:30:26.969Z,11.40
2023-01-01T16:33:18.887Z,11.30
2023-01-01T16:36:09.010Z,11.20
2023-01-01T16:38:56.773Z,11.20
2023-01-01T16:41:44.385Z,11.10
2023-01-01T16:44:31.121Z,11.00
2023-01-01T16:47:17.948Z,10.90
2023-01-01T16:50:04.989Z,10.80
2023-01-01T16:52:51.734Z,10.70
2023-01-01T16:55:38.623Z,10.70
2023-01-01T16:59:00.266Z,10.80
2023-01-01T17:01:32.561Z,10.90
2023-01-01T17:04:19.534Z,10.90
2023-01-01T17:07:06.313Z,10.90
2023-01-01T17:09:53.068Z,10.80
2023-01-01T17:12:39.842Z,10.70
2023-01-01T17:15:26.595Z,10.70
2023-01-01T17:18:13.562Z,10.60
2023-01-01T17:21:05.832Z,10.70
2023-01-01T17:23:53.681Z,10.70
2023-01-01T17:26:40.327Z,10.70
2023-01-01T17:29:27.128Z,10.60
2023-01-01T17:32:15.451Z,10.60
2023-01-01T17:35:02.388Z,10.50
2023-01-01T17:37:49.462Z,10.50
2023-01-01T17:40:37.144Z,10.50
2023-01-01T17:43:24.066Z,10.50
2023-01-01T17:46:17.276Z,10.60
2023-01-01T17:49:04.954Z,10.50
2023-01-01T17:51:51.747Z,10.50
2023-01-01T17:54:38.495Z,10.40
2023-01-01T17:57:25.256Z,10.30
2023-01-01T18:00:12.504Z,10.10
2023-01-01T18:02:59.341Z,9.80
2023-01-01T18:05:46.192Z,9.70
2023-01-01T18:08:33.159Z,9.70
2023-01-01T18:11:19.895Z,9.70
2023-01-01T18:14:06.732Z,9.70
2023-01-01T18:16:53.461Z,9.70
2023-01-01T18:19:40.164Z,9.60
2023-01-01T18:22:26.895Z,9.60
2023-01-01T18:25:13.577Z,9.50
2023-01-01T18:28:00.293Z,9.40
2023-01-01T18:30:46.988Z,9.40
2023-01-01T18:33:34.339Z,9.30
2023-01-01T18:36:27.458Z,9.40
2023-01-01T18:39:16.403Z,9.40
2023-01-01T18:42:17.264Z,9.30
2023-01-01T18:45:25.694Z,9.30
2023-01-01T18:48:15.577Z,9.30
2023-01-01T18:51:02.716Z,9.30
2023-01-01T18:53:51.716Z,9.20
2023-01-01T18:56:39.908Z,9.30
2023-01-01T18:59:26.671Z,9.20
2023-01-01T19:02:21.009Z,9.20
2023-01-01T19:05:15.941Z,9.20
2023-01-01T19:08:09.928Z,9.10
2023-01-01T19:11:02.969Z,9.10
2023-01-01T19:14:00.864Z,9.10
2023-01-01T19:16:50.112Z,9.20
2023-01-01T19:19:41.862Z,9.30
2023-01-01T19:22:30.768Z,9.30
2023-01-01T19:25:37.893Z,9.40
2023-01-01T19:28:31.280Z,9.40
2023-01-01T19:31:19.916Z,9.40
2023-01-01T19:34:06.730Z,9.50
2023-01-01T19:36:54.902Z,9.50
2023-01-01T19:39:42.419Z,9.50
2023-01-01T19:42:30.872Z,9.60
2023-01-01T19:45:17.738Z,9.70
2023-01-01T19:48:05.895Z,9.70
2023-01-01T19:50:52.599Z,9.70
2023-01-01T19:53:40.906Z,9.60
2023-01-01T20:10:02.344Z,9.60
2023-01-01T20:18:40.218Z,9.60
2023-01-01T21:22:52.493Z,9.30
2023-01-01T22:41:02.595Z,9.00
2023-01-01T22:48:30.697Z,8.90
2023-01-01T23:06:55.806Z,8.60
2023-01-01T23:09:42.981Z,8.60
2023-01-01T23:12:29.912Z,8.60
2023-01-01T23:15:35.208Z,8.60
2023-01-01T23:18:21.970Z,8.60
2023-01-01T23:21:12.073Z,8.60
2023-01-01T23:24:00.032Z,8.50
2023-01-01T23:26:48.285Z,8.50
2023-01-01T23:29:35.915Z,8.50
2023-01-01T23:32:23.906Z,8.40
2023-01-01T23:35:11.310Z,8.40
2023-01-01T23:37:59.490Z,8.30
2023-01-01T23:40:46.253Z,8.30
2023-01-01T23:43:33.724Z,8.30
2023-01-01T23:46:23.839Z,8.30
2023-01-01T23:49:10.675Z,8.20
2023-01-01T23:51:59.835Z,8.20
2023-01-01T23:54:46.551Z,8.10
2023-01-01T23:57:34.776Z,8.10
